createdAt,value
2023-01-03T00:01:53.577Z,101332.47
2023-01-03T00:04:22.604Z,101331.88
2023-01-03T00:06:54.024Z,101328.83
2023-01-03T00:09:24.573Z,101328.64
2023-01-03T00:12:12.819Z,101334.53
2023-01-03T00:14:43.943Z,101336.95
2023-01-03T00:17:13.703Z,101339.63
2023-01-03T00:19:45.091Z,101346.20
2023-01-03T00:22:16.477Z,101351.31
2023-01-03T00:24:47.284Z,101353.17
2023-01-03T00:27:16.624Z,101350.14
2023-01-03T00:29:45.703Z,101348.69
2023-01-03T00:32:15.056Z,101353.20
2023-01-03T00:34:47.476Z,101358.02
2023-01-03T00:37:16.351Z,101356.90
2023-01-03T00:39:44.755Z,101354.48
2023-01-03T00:42:16.638Z,101358.31
2023-01-03T00:44:44.637Z,101362.20
2023-01-03T00:47:12.622Z,101368.40
2023-01-03T00:49:40.697Z,101377.71
2023-01-03T00:52:08.736Z,101380.02
2023-01-03T00:54:37.642Z,101387.52
2023-01-03T00:57:05.707Z,101395.36
2023-01-03T00:59:33.861Z,101400.95
2023-01-03T01:02:02.054Z,101406.50
2023-01-03T01:04:33.085Z,101411.13
2023-01-03T01:07:04.502Z,101410.70
2023-01-03T01:09:36.351Z,101415.04
2023-01-03T01:12:07.702Z,101415.95
2023-01-03T01:14:36.589Z,101420.22
2023-01-03T01:17:08.826Z,101427.57
2023-01-03T01:19:44.376Z,101427.42
2023-01-03T01:22:13.263Z,101439.91
2023-01-03T01:24:42.614Z,101437.67
2023-01-03T01:27:11.155Z,101442.55
2023-01-03T01:29:40.176Z,101442.90
2023-01-03T01:32:08.186Z,101441.09
2023-01-03T01:34:36.495Z,101445.00
2023-01-03T01:37:04.424Z,101447.86
2023-01-03T01:39:33.195Z,101447.29
2023-01-03T01:42:28.703Z,101449.71
2023-01-03T01:45:02.874Z,101451.23
2023-01-03T01:47:53.622Z,101452.99
2023-01-03T01:50:28.384Z,101451.73
2023-01-03T01:53:09.404Z,101447.19
2023-01-03T01:55:46.488Z,101441.99
2023-01-03T01:58:16.486Z,101446.14
2023-01-03T02:00:45.493Z,101444.58
2023-01-03T02:03:14.460Z,101446.58
2023-01-03T02:05:51.024Z,101454.74
2023-01-03T02:08:22.235Z,101458.77
2023-01-03T02:10:50.166Z,101463.89
2023-01-03T02:13:33.503Z,101468.32
2023-01-03T02:16:12.661Z,101471.20
2023-01-03T02:18:58.306Z,101472.73
2023-01-03T02:21:41.654Z,101476.55
2023-01-03T02:24:22.764Z,101484.83
2023-01-03T02:27:13.785Z,101489.49
2023-01-03T02:30:06.556Z,101492.62
2023-01-03T02:32:35.008Z,101499.48
2023-01-03T02:35:29.420Z,101502.46
2023-01-03T02:38:13.729Z,101507.25
2023-01-03T02:40:50.915Z,101516.78
2023-01-03T02:43:53.748Z,101522.44
2023-01-03T02:46:31.236Z,101521.64
2023-01-03T02:49:10.808Z,101522.75
2023-01-03T02:51:48.291Z,101526.00
2023-01-03T02:54:28.899Z,101525.93
2023-01-03T02:57:10.661Z,101531.25
2023-01-03T02:59:49.974Z,101537.69
2023-01-03T03:02:22.755Z,101541.58
2023-01-03T03:04:57.185Z,101540.64
2023-01-03T03:07:34.850Z,101538.07
2023-01-03T03:10:24.140Z,101538.83
2023-01-03T03:13:15.744Z,101545.34
2023-01-03T03:16:02.916Z,101545.55
2023-01-03T03:18:46.310Z,101547.23
2023-01-03T03:21:37.789Z,101549.27
2023-01-03T03:24:37.756Z,101553.44
2023-01-03T03:27:29.029Z,101555.29
2023-01-03T03:30:01.363Z,101556.92
2023-01-03T03:32:35.172Z,101559.54
2023-01-03T03:35:07.348Z,101562.80
2023-01-03T03:37:40.791Z,101568.07
2023-01-03T03:40:30.210Z,101571.01
2023-01-03T03:43:30.564Z,101577.02
2023-01-03T03:46:15.296Z,101578.55
2023-01-03T03:49:16.065Z,101584.52
2023-01-03T03:51:48.748Z,101589.54
2023-01-03T03:54:22.268Z,101593.88
2023-01-03T03:57:00.788Z,101589.11
2023-01-03T03:59:33.425Z,101591.13
2023-01-03T04:02:05.997Z,101600.11
2023-01-03T04:04:41.267Z,101600.50
2023-01-03T04:07:10.027Z,101603.77
2023-01-03T04:09:38.225Z,101604.27
2023-01-03T04:12:06.714Z,101606.21
2023-01-03T04:14:34.801Z,101601.27
2023-01-03T04:17:03.013Z,101605.91
2023-01-03T04:19:31.081Z,101612.27
2023-01-03T04:21:59.067Z,101616.86
2023-01-03T04:24:27.087Z,101615.20
2023-01-03T04:26:55.083Z,101617.05
2023-01-03T04:29:23.156Z,101618.52
2023-01-03T04:31:51.221Z,101617.27
2023-01-03T04:34:19.272Z,101617.49
2023-01-03T04:36:47.415Z,101618.73
2023-01-03T04:39:15.309Z,101617.58
2023-01-03T04:41:43.271Z,101620.63
2023-01-03T04:44:11.227Z,101625.74
2023-01-03T04:46:40.943Z,101625.23
2023-01-03T04:49:10.708Z,101628.58
2023-01-03T04:51:38.632Z,101631.94
2023-01-03T04:54:07.587Z,101632.23
2023-01-03T04:56:38.620Z,101634.67
2023-01-03T04:59:06.686Z,101635.42
2023-01-03T05:01:34.873Z,101637.39
2023-01-03T05:04:05.522Z,101636.14
2023-01-03T05:06:33.541Z,101634.87
2023-01-03T05:09:01.659Z,101639.10
2023-01-03T05:11:29.603Z,101638.48
2023-01-03T05:13:59.660Z,101638.40
2023-01-03T05:16:27.688Z,101641.29
2023-01-03T05:18:57.085Z,101649.29
2023-01-03T05:21:43.886Z,101645.60
2023-01-03T05:24:32.139Z,101649.04
2023-01-03T05:27:03.942Z,101652.08
2023-01-03T05:29:35.350Z,101655.80
2023-01-03T05:32:03.427Z,101661.02
2023-01-03T05:34:31.443Z,101664.55
2023-01-03T05:36:59.450Z,101663.80
2023-01-03T05:39:27.403Z,101667.93
2023-01-03T05:42:02.565Z,101667.73
2023-01-03T05:44:34.806Z,101673.98
2023-01-03T05:47:04.695Z,101676.41
2023-01-03T05:49:34.093Z,101682.16
2023-01-03T05:52:02.147Z,101685.66
2023-01-03T05:54:30.164Z,101692.44
2023-01-03T05:56:58.232Z,101697.40
2023-01-03T05:59:27.275Z,101703.02
2023-01-03T06:01:56.142Z,101707.60
2023-01-03T06:04:24.902Z,101706.67
2023-01-03T06:07:17.944Z,101716.21
2023-01-03T06:09:45.997Z,101717.46
2023-01-03T06:12:14.865Z,101723.68
2023-01-03T06:14:42.837Z,101727.27
2023-01-03T06:17:30.857Z,101734.77
2023-01-03T06:19:58.841Z,101737.77
2023-01-03T06:22:26.995Z,101744.23
2023-01-03T06:24:54.914Z,101746.35
2023-01-03T06:27:23.158Z,101750.46
2023-01-03T06:29:52.608Z,101751.67
2023-01-03T06:32:20.725Z,101754.44
2023-01-03T06:34:48.655Z,101758.79
2023-01-03T06:37:16.929Z,101766.86
2023-01-03T06:39:46.363Z,101771.11
2023-01-03T06:42:33.293Z,101777.36
2023-01-03T06:45:20.245Z,101782.98
2023-01-03T06:48:07.802Z,101784.73
2023-01-03T06:51:01.444Z,101788.59
2023-01-03T06:53:37.748Z,101802.25
2023-01-03T06:56:07.649Z,101807.21
2023-01-03T06:58:36.721Z,101811.93
2023-01-03T07:01:07.257Z,101815.14
2023-01-03T07:03:35.961Z,101822.61
2023-01-03T07:06:03.977Z,101825.58
2023-01-03T07:08:33.050Z,101822.96
2023-01-03T07:11:01.160Z,101828.88
2023-01-03T07:13:48.002Z,101829.75
2023-01-03T07:16:18.974Z,101836.13
2023-01-03T07:18:54.731Z,101841.27
2023-01-03T07:21:27.296Z,101842.44
2023-01-03T07:23:58.388Z,101842.99
2023-01-03T07:26:26.519Z,101847.43
2023-01-03T07:28:54.577Z,101852.23
2023-01-03T07:31:22.759Z,101850.40
2023-01-03T07:33:50.905Z,101856.95
2023-01-03T07:36:21.233Z,101861.55
2023-01-03T07:38:50.111Z,101865.61
2023-01-03T07:41:18.830Z,101867.17
2023-01-03T07:43:49.640Z,101872.84
2023-01-03T07:46:19.328Z,101879.77
2023-01-03T07:48:52.087Z,101878.55
2023-01-03T07:51:22.098Z,101884.59
2023-01-03T07:53:53.098Z,101882.52
2023-01-03T07:56:25.698Z,101886.56
2023-01-03T07:58:55.264Z,101888.55
2023-01-03T08:01:25.218Z,101890.40
2023-01-03T08:03:54.085Z,101897.50
2023-01-03T08:06:24.116Z,101896.80
2023-01-03T08:09:12.177Z,101894.33
2023-01-03T08:11:59.367Z,101900.45
2023-01-03T08:14:27.679Z,101902.77
2023-01-03T08:16:57.169Z,101911.00
2023-01-03T08:19:26.209Z,101916.03
2023-01-03T08:21:54.275Z,101919.80
2023-01-03T08:24:22.421Z,101922.01
2023-01-03T08:26:50.434Z,101927.20
2023-01-03T08:29:18.501Z,101928.17
2023-01-03T08:31:57.447Z,101928.11
2023-01-03T08:34:30.354Z,101933.27
2023-01-03T08:37:03.297Z,101939.41
2023-01-03T08:39:42.165Z,101940.90
2023-01-03T08:42:14.466Z,101944.98
2023-01-03T08:44:45.589Z,101943.34
2023-01-03T08:47:16.512Z,101942.85
2023-01-03T08:49:44.797Z,101947.88
2023-01-03T08:52:12.978Z,101951.56
2023-01-03T08:54:41.209Z,101956.67
2023-01-03T08:57:09.437Z,101966.27
2023-01-03T08:59:37.323Z,101971.42
2023-01-03T09:02:05.733Z,101973.25
2023-01-03T09:04:34.494Z,101977.46
2023-01-03T09:07:02.446Z,101977.64
2023-01-03T09:09:30.442Z,101981.02
2023-01-03T09:11:58.429Z,101977.67
2023-01-03T09:14:27.703Z,101989.55
2023-01-03T09:16:55.797Z,101989.45
2023-01-03T09:19:24.494Z,101990.89
2023-01-03T09:21:52.399Z,101991.68
2023-01-03T09:24:20.767Z,101986.81
2023-01-03T09:26:54.195Z,101984.48
2023-01-03T09:29:23.707Z,101989.30
2023-01-03T09:31:52.190Z,101989.14
2023-01-03T09:34:21.017Z,101986.20
2023-01-03T09:36:49.109Z,101993.42
2023-01-03T09:39:17.315Z,101991.45
2023-01-03T09:41:45.352Z,101996.11
2023-01-03T09:44:14.700Z,101993.46
2023-01-03T09:46:42.818Z,101991.70
2023-01-03T09:49:14.528Z,101992.34
2023-01-03T09:52:04.582Z,101992.66
2023-01-03T09:55:00.557Z,101992.34
2023-01-03T09:57:51.893Z,101996.02
2023-01-03T10:00:47.111Z,102001.81
2023-01-03T10:03:50.919Z,102005.87
2023-01-03T10:06:35.392Z,102004.97
2023-01-03T10:09:20.555Z,102005.67
2023-01-03T10:12:13.026Z,102000.81
2023-01-03T10:15:01.872Z,102003.33
2023-01-03T10:17:41.948Z,102002.23
2023-01-03T10:20:09.958Z,102001.89
2023-01-03T10:22:39.637Z,101999.82
2023-01-03T10:25:07.837Z,101998.00
2023-01-03T10:27:44.435Z,101994.28
2023-01-03T10:30:18.173Z,101993.77
2023-01-03T10:33:15.356Z,101994.18
2023-01-03T10:35:43.389Z,101996.23
2023-01-03T10:38:17.240Z,101994.73
2023-01-03T10:40:54.244Z,102000.09
2023-01-03T10:43:31.180Z,101990.48
2023-01-03T10:46:04.951Z,101986.77
2023-01-03T10:49:17.480Z,101984.83
2023-01-03T10:52:09.362Z,101992.54
2023-01-03T10:54:44.396Z,101992.60
2023-01-03T10:57:44.690Z,101995.60
2023-01-03T11:00:28.160Z,101990.73
2023-01-03T11:03:13.668Z,101991.23
2023-01-03T11:05:48.950Z,101995.89
2023-01-03T11:08:24.267Z,101995.60
2023-01-03T11:10:58.910Z,101988.70
2023-01-03T11:13:42.434Z,101994.35
2023-01-03T11:16:20.044Z,101996.08
2023-01-03T11:19:04.422Z,101997.40
2023-01-03T11:21:44.709Z,101996.41
2023-01-03T11:24:42.595Z,101998.35
2023-01-03T11:27:46.875Z,102002.73
2023-01-03T11:30:38.526Z,102000.59
2023-01-03T11:33:37.887Z,102002.23
2023-01-03T11:36:12.654Z,102000.11
2023-01-03T11:39:16.221Z,101999.95
2023-01-03T11:42:10.434Z,101996.86
2023-01-03T11:45:06.051Z,101991.43
2023-01-03T11:47:46.123Z,101985.30
2023-01-03T11:50:42.297Z,101977.66
2023-01-03T11:53:55.540Z,101981.11
2023-01-03T11:56:36.734Z,101979.02
2023-01-03T11:59:38.533Z,101981.14
2023-01-03T12:02:49.596Z,101984.50
2023-01-03T12:05:36.354Z,101980.27
2023-01-03T12:08:04.323Z,101980.39
2023-01-03T12:10:57.242Z,101984.09
2023-01-03T12:13:54.034Z,101987.77
2023-01-03T12:16:30.723Z,101991.54
2023-01-03T12:19:26.253Z,101991.79
2023-01-03T12:22:19.809Z,101995.70
2023-01-03T12:25:06.152Z,101998.27
2023-01-03T12:27:50.926Z,101997.94
2023-01-03T12:30:38.563Z,102005.08
2023-01-03T12:33:39.525Z,102007.03
2023-01-03T12:36:19.589Z,102002.46
2023-01-03T12:39:15.135Z,102000.70
2023-01-03T12:41:51.255Z,102005.96
2023-01-03T12:44:39.081Z,102006.89
2023-01-03T12:47:27.549Z,102007.77
2023-01-03T12:50:06.966Z,102006.17
2023-01-03T12:52:38.658Z,102003.94
2023-01-03T12:55:35.477Z,102004.27
2023-01-03T12:58:40.013Z,102005.73
2023-01-03T13:01:43.044Z,102003.20
2023-01-03T13:04:35.982Z,102003.79
2023-01-03T13:07:13.168Z,102004.08
2023-01-03T13:09:49.896Z,102002.92
2023-01-03T13:12:26.181Z,102004.31
2023-01-03T13:15:04.356Z,102000.64
2023-01-03T13:17:45.338Z,101995.11
2023-01-03T13:20:43.625Z,101989.51
2023-01-03T13:23:30.300Z,101995.38
2023-01-03T13:26:07.439Z,101993.39
2023-01-03T13:28:38.155Z,102001.50
2023-01-03T13:31:16.266Z,102000.13
2023-01-03T13:34:11.061Z,102000.83
2023-01-03T13:37:07.981Z,102005.48
2023-01-03T13:39:51.051Z,102005.56
2023-01-03T13:42:36.057Z,102005.34
2023-01-03T13:45:19.350Z,102013.11
2023-01-03T13:47:49.693Z,102014.02
2023-01-03T13:50:29.123Z,102014.89
2023-01-03T13:53:04.218Z,102014.30
2023-01-03T13:55:40.066Z,102011.63
2023-01-03T13:58:49.920Z,102009.71
2023-01-03T14:01:40.109Z,102012.83
2023-01-03T14:04:46.789Z,102019.16
2023-01-03T14:07:45.909Z,102022.52
2023-01-03T14:10:31.819Z,102019.83
2023-01-03T14:13:02.877Z,102026.36
2023-01-03T14:15:32.991Z,102026.35
2023-01-03T14:18:09.367Z,102028.74
2023-01-03T14:20:40.116Z,102031.73
2023-01-03T14:23:57.337Z,102031.31
2023-01-03T14:26:15.890Z,102034.80
2023-01-03T14:28:52.667Z,102038.34
2023-01-03T14:31:26.931Z,102039.15
2023-01-03T14:34:01.795Z,102039.20
2023-01-03T14:36:29.901Z,102045.99
2023-01-03T14:39:02.046Z,102050.36
2023-01-03T14:41:33.098Z,102054.59
2023-01-03T14:44:04.766Z,102061.00
2023-01-03T14:46:35.599Z,102063.06
2023-01-03T14:49:14.391Z,102061.45
2023-01-03T14:51:43.333Z,102062.86
2023-01-03T14:54:18.287Z,102063.03
2023-01-03T14:56:49.109Z,102063.38
2023-01-03T14:59:22.442Z,102064.46
2023-01-03T15:01:51.665Z,102070.69
2023-01-03T15:04:20.516Z,102075.30
2023-01-03T15:07:07.997Z,102076.16
2023-01-03T15:09:39.917Z,102075.77
2023-01-03T15:12:08.045Z,102076.07
2023-01-03T15:14:39.713Z,102077.17
2023-01-03T15:17:10.631Z,102076.13
2023-01-03T15:19:48.727Z,102072.41
2023-01-03T15:22:25.927Z,102072.77
2023-01-03T15:25:05.319Z,102064.87
2023-01-03T15:27:39.383Z,102067.67
2023-01-03T15:30:21.462Z,102068.52
2023-01-03T15:32:50.769Z,102074.51
2023-01-03T15:35:41.300Z,102076.20
2023-01-03T15:38:42.967Z,102074.45
2023-01-03T15:41:45.877Z,102085.37
2023-01-03T15:44:25.127Z,102084.91
2023-01-03T15:46:59.237Z,102089.20
2023-01-03T15:49:29.210Z,102091.69
2023-01-03T15:51:58.065Z,102092.52
2023-01-03T15:54:28.047Z,102094.44
2023-01-03T15:57:03.792Z,102097.69
2023-01-03T15:59:42.937Z,102100.43
2023-01-03T16:02:18.102Z,102103.98
2023-01-03T16:04:50.245Z,102100.95
2023-01-03T16:07:19.442Z,102103.95
2023-01-03T16:09:47.602Z,102105.33
2023-01-03T16:12:23.482Z,102104.09
2023-01-03T16:14:54.437Z,102104.31
2023-01-03T16:17:28.916Z,102109.48
2023-01-03T16:20:00.109Z,102108.44
2023-01-03T16:22:34.954Z,102116.41
2023-01-03T16:25:07.796Z,102119.57
2023-01-03T16:27:35.808Z,102122.36
2023-01-03T16:30:03.948Z,102127.36
2023-01-03T16:32:33.536Z,102129.77
2023-01-03T16:35:08.071Z,102125.43
2023-01-03T16:37:36.073Z,102119.11
2023-01-03T16:40:04.362Z,102120.92
2023-01-03T16:42:32.459Z,102121.65
2023-01-03T16:45:00.502Z,102123.06
2023-01-03T16:47:35.668Z,102121.70
2023-01-03T16:50:11.397Z,102121.19
2023-01-03T16:52:44.873Z,102124.13
2023-01-03T16:55:16.294Z,102121.70
2023-01-03T16:57:47.434Z,102126.15
2023-01-03T17:00:28.298Z,102125.12
2023-01-03T17:03:00.627Z,102128.14
2023-01-03T17:05:37.885Z,102124.92
2023-01-03T17:08:32.346Z,102128.08
2023-01-03T17:11:01.685Z,102132.34
2023-01-03T17:13:36.953Z,102135.76
2023-01-03T17:16:12.875Z,102135.29
2023-01-03T17:18:42.964Z,102132.17
2023-01-03T17:21:35.839Z,102132.35
2023-01-03T17:24:19.043Z,102127.53
2023-01-03T17:26:50.149Z,102130.96
2023-01-03T17:29:26.373Z,102136.48
2023-01-03T17:31:54.438Z,102137.20
2023-01-03T17:34:31.882Z,102139.95
2023-01-03T17:37:01.257Z,102148.89
2023-01-03T17:39:29.306Z,102157.23
2023-01-03T17:42:12.522Z,102159.01
2023-01-03T17:44:42.708Z,102165.79
2023-01-03T17:47:35.615Z,102171.50
2023-01-03T17:50:07.304Z,102170.80
2023-01-03T17:52:39.026Z,102170.57
2023-01-03T17:55:20.985Z,102170.33
2023-01-03T17:57:50.429Z,102171.05
2023-01-03T18:00:23.196Z,102171.49
2023-01-03T18:02:52.900Z,102174.61
2023-01-03T18:05:28.211Z,102175.30
2023-01-03T18:08:01.498Z,102172.87
2023-01-03T18:10:46.883Z,102177.98
2023-01-03T18:13:24.838Z,102183.98
2023-01-03T18:15:55.288Z,102191.06
2023-01-03T18:18:26.253Z,102188.88
2023-01-03T18:20:55.838Z,102194.05
2023-01-03T18:23:37.070Z,102192.96
2023-01-03T18:26:08.362Z,102191.52
2023-01-03T18:28:36.406Z,102191.68
2023-01-03T18:31:06.707Z,102188.36
2023-01-03T18:33:34.671Z,102184.13
2023-01-03T18:36:02.571Z,102181.15
2023-01-03T18:38:39.968Z,102182.13
2023-01-03T18:41:18.998Z,102183.38
2023-01-03T18:43:46.956Z,102186.36
2023-01-03T18:46:22.616Z,102187.54
2023-01-03T18:48:50.766Z,102186.24
2023-01-03T18:51:24.189Z,102187.35
2023-01-03T18:53:59.519Z,102183.64
2023-01-03T18:56:35.219Z,102188.41
2023-01-03T18:59:07.055Z,102188.48
2023-01-03T19:01:35.318Z,102195.98
2023-01-03T19:04:04.070Z,102201.82
2023-01-03T19:06:34.233Z,102202.17
2023-01-03T19:09:07.218Z,102202.19
2023-01-03T19:11:38.565Z,102198.39
2023-01-03T19:14:09.534Z,102193.94
2023-01-03T19:16:38.755Z,102195.59
2023-01-03T19:19:07.818Z,102196.02
2023-01-03T19:21:42.392Z,102198.40
2023-01-03T19:24:23.772Z,102195.35
2023-01-03T19:26:58.822Z,102193.80
2023-01-03T19:29:37.456Z,102194.54
2023-01-03T19:32:16.945Z,102193.00
2023-01-03T19:34:45.285Z,102193.84
2023-01-03T19:37:13.340Z,102200.27
2023-01-03T19:39:41.426Z,102206.52
2023-01-03T19:42:35.736Z,102209.39
2023-01-03T19:45:16.752Z,102203.34
2023-01-03T19:47:45.085Z,102197.81
2023-01-03T19:50:26.263Z,102196.91
2023-01-03T19:52:55.380Z,102194.77
2023-01-03T19:55:28.134Z,102197.96
2023-01-03T19:58:00.693Z,102194.17
2023-01-03T20:00:32.472Z,102198.81
2023-01-03T20:03:05.585Z,102198.38
2023-01-03T20:05:35.893Z,102199.78
2023-01-03T20:08:11.924Z,102194.42
2023-01-03T20:10:44.313Z,102196.73
2023-01-03T20:13:23.765Z,102189.61
2023-01-03T20:16:00.763Z,102187.27
2023-01-03T20:18:39.776Z,102186.80
2023-01-03T20:21:23.339Z,102189.20
2023-01-03T20:23:58.740Z,102188.55
2023-01-03T20:26:30.268Z,102187.23
2023-01-03T20:29:00.477Z,102185.58
2023-01-03T20:31:29.345Z,102189.14
2023-01-03T20:34:00.382Z,102192.23
2023-01-03T20:36:36.653Z,102197.02
2023-01-03T20:39:04.761Z,102200.04
2023-01-03T20:41:38.793Z,102198.15
2023-01-03T20:44:09.745Z,102197.19
2023-01-03T20:46:39.535Z,102200.92
2023-01-03T20:49:22.908Z,102201.83
2023-01-03T20:51:53.415Z,102198.64
2023-01-03T20:54:21.528Z,102203.00
2023-01-03T20:56:49.541Z,102195.17
2023-01-03T20:59:20.864Z,102195.51
2023-01-03T21:01:49.401Z,102197.01
2023-01-03T21:04:18.305Z,102193.29
2023-01-03T21:06:48.001Z,102193.66
2023-01-03T21:09:16.112Z,102190.02
2023-01-03T21:11:44.170Z,102185.76
2023-01-03T21:14:12.053Z,102187.30
2023-01-03T21:16:43.570Z,102188.25
2023-01-03T21:19:16.303Z,102197.88
2023-01-03T21:21:47.778Z,102199.70
2023-01-03T21:24:19.663Z,102201.52
2023-01-03T21:26:48.460Z,102202.27
2023-01-03T21:29:16.403Z,102202.27
2023-01-03T21:31:44.748Z,102203.23
2023-01-03T21:34:21.918Z,102202.81
2023-01-03T21:36:50.059Z,102203.54
2023-01-03T21:39:18.006Z,102201.55
2023-01-03T21:42:04.850Z,102198.47
2023-01-03T21:44:32.908Z,102201.45
2023-01-03T21:47:00.918Z,102202.68
2023-01-03T21:49:29.025Z,102204.83
2023-01-03T21:51:57.048Z,102200.89
2023-01-03T21:54:26.092Z,102201.58
2023-01-03T21:56:54.095Z,102197.39
2023-01-03T21:59:22.187Z,102196.58
2023-01-03T22:02:09.368Z,102201.26
2023-01-03T22:04:38.320Z,102202.35
2023-01-03T22:07:06.483Z,102197.42
2023-01-03T22:09:53.294Z,102199.92
2023-01-03T22:12:21.993Z,102195.71
2023-01-03T22:14:50.281Z,102193.05
2023-01-03T22:17:18.398Z,102190.54
2023-01-03T22:19:46.597Z,102198.20
2023-01-03T22:22:14.559Z,102199.01
2023-01-03T22:24:42.858Z,102194.33
2023-01-03T22:27:14.484Z,102191.65
2023-01-03T22:29:42.605Z,102192.33
2023-01-03T22:32:10.864Z,102192.59
2023-01-03T22:34:39.645Z,102192.34
2023-01-03T22:37:08.566Z,102190.78
2023-01-03T22:39:36.524Z,102190.64
2023-01-03T22:42:05.461Z,102194.23
2023-01-03T22:44:34.437Z,102197.11
2023-01-03T22:47:02.948Z,102203.79
2023-01-03T22:49:32.108Z,102202.38
2023-01-03T22:52:00.106Z,102195.48
2023-01-03T22:54:28.333Z,102192.49
2023-01-03T22:56:57.266Z,102194.86
2023-01-03T22:59:26.042Z,102192.70
2023-01-03T23:01:54.063Z,102194.41
2023-01-03T23:04:24.708Z,102195.12
2023-01-03T23:06:54.765Z,102194.93
2023-01-03T23:09:24.530Z,102194.08
2023-01-03T23:12:11.018Z,102193.76
2023-01-03T23:14:39.146Z,102190.54
2023-01-03T23:17:26.114Z,102183.02
2023-01-03T23:19:54.297Z,102177.04
2023-01-03T23:22:22.210Z,102170.18
2023-01-03T23:24:50.355Z,102165.71
2023-01-03T23:27:18.337Z,102163.14
2023-01-03T23:29:46.487Z,102160.94
2023-01-03T23:32:14.513Z,102159.02
2023-01-03T23:34:42.577Z,102156.77
2023-01-03T23:37:11.379Z,102156.48
2023-01-03T23:39:40.370Z,102158.29
2023-01-03T23:42:08.333Z,102157.67
2023-01-03T23:44:36.306Z,102160.00
2023-01-03T23:47:11.144Z,102155.45
2023-01-03T23:49:40.426Z,102161.90
2023-01-03T23:52:08.535Z,102165.23
2023-01-03T23:54:36.413Z,102167.14
2023-01-03T23:57:05.661Z,102164.25
2023-01-03T23:59:33.718Z,102159.32
